Time;durP1;ratioP1;P1;durP2;ratioP2;P2;SDS_P1;SDS_P2;PMS_P1;PMS_P2;Temp;Humidity;BMP_temperature;BMP_pressure;BME280_temperature;BME280_humidity;BME280_pressure;Samples;Min_cycle;Max_cycle;Signal;HPM_P1;HPM_P2
2022/07/01 00:00:38;;;;;;;8.13;2.00;;;23.20;99.90;;;;;;5075975;28;20033;-80
2022/07/01 00:03:04;;;;;;;6.22;1.77;;;23.30;99.90;;;;;;5075100;28;20032;-76
2022/07/01 00:05:30;;;;;;;9.70;2.13;;;23.30;99.90;;;;;;5076556;28;20954;-76
2022/07/01 00:07:56;;;;;;;4.50;1.80;;;23.30;99.90;;;;;;5089811;28;20392;-83
2022/07/01 00:10:22;;;;;;;6.38;2.00;;;23.20;99.90;;;;;;5064792;28;20071;-76
2022/07/01 00:12:49;;;;;;;7.60;2.13;;;23.20;99.90;;;;;;5062368;28;20079;-78
2022/07/01 00:15:16;;;;;;;5.78;2.20;;;23.20;99.90;;;;;;5076848;28;20151;-81
2022/07/01 00:17:43;;;;;;;5.65;1.70;;;23.30;99.90;;;;;;5046277;28;20048;-77
2022/07/01 00:20:09;;;;;;;7.72;1.88;;;23.20;99.90;;;;;;5043812;28;20128;-82
2022/07/01 00:22:36;;;;;;;6.90;1.88;;;23.20;99.90;;;;;;5042268;28;20055;-78
2022/07/01 00:25:04;;;;;;;4.07;1.85;;;23.20;99.90;;;;;;5042873;28;20036;-82
2022/07/01 00:27:31;;;;;;;6.93;1.83;;;23.20;99.90;;;;;;5077699;28;20033;-76
2022/07/01 00:29:58;;;;;;;4.68;1.77;;;23.20;99.90;;;;;;5055485;28;20033;-81
2022/07/01 00:32:24;;;;;;;7.07;1.70;;;23.20;99.90;;;;;;5057373;28;20041;-76
2022/07/01 00:34:50;;;;;;;4.13;1.90;;;23.20;99.90;;;;;;5049666;28;20032;-81
2022/07/01 00:37:17;;;;;;;10.48;1.95;;;23.10;99.90;;;;;;5053392;28;20029;-82
2022/07/01 00:39:44;;;;;;;6.97;1.70;;;23.10;99.90;;;;;;5039821;28;20049;-75
2022/07/01 00:42:10;;;;;;;5.18;1.75;;;23.10;99.90;;;;;;5067187;28;20043;-80
2022/07/01 00:44:36;;;;;;;6.05;1.67;;;23.10;99.90;;;;;;5044136;28;20041;-78
2022/07/01 00:47:09;;;;;;;5.57;1.70;;;23.10;99.90;;;;;;5071521;28;20151;-76
2022/07/01 00:49:35;;;;;;;8.00;2.10;;;23.10;99.90;;;;;;5041556;28;20119;-76
2022/07/01 00:52:03;;;;;;;4.88;1.77;;;23.00;99.90;;;;;;5049748;28;20078;-76
2022/07/01 00:54:34;;;;;;;5.72;1.80;;;23.00;99.90;;;;;;5077839;28;20033;-77
2022/07/01 00:57:09;;;;;;;8.67;2.07;;;23.00;99.90;;;;;;5078238;28;20049;-83
2022/07/01 00:59:36;;;;;;;8.43;2.03;;;23.10;99.90;;;;;;5078192;28;20282;-82
2022/07/01 01:02:04;;;;;;;4.47;1.60;;;23.10;99.90;;;;;;5076589;28;20102;-76
2022/07/01 01:04:32;;;;;;;5.57;1.70;;;23.20;99.90;;;;;;5079531;28;20751;-76
2022/07/01 01:07:00;;;;;;;4.90;1.90;;;23.20;99.90;;;;;;5066457;28;20372;-79
2022/07/01 01:09:30;;;;;;;6.28;2.08;;;23.20;99.90;;;;;;5067493;28;20467;-82
2022/07/01 01:11:57;;;;;;;5.68;1.77;;;23.20;99.90;;;;;;5082116;28;20079;-80
2022/07/01 01:14:24;;;;;;;3.60;1.70;;;23.10;99.90;;;;;;5036844;28;20380;-78
2022/07/01 01:16:50;;;;;;;7.45;2.17;;;23.10;99.90;;;;;;5070558;28;20123;-76
2022/07/01 01:19:17;;;;;;;4.63;1.60;;;23.10;99.90;;;;;;5058597;28;20072;-77
2022/07/01 01:21:43;;;;;;;3.97;1.55;;;23.20;99.90;;;;;;5042689;28;20034;-83
2022/07/01 01:24:09;;;;;;;5.15;2.15;;;23.20;99.90;;;;;;5045113;28;20036;-79
2022/07/01 01:26:35;;;;;;;6.38;1.60;;;23.20;99.90;;;;;;5057759;28;20036;-77
2022/07/01 01:29:01;;;;;;;6.78;2.00;;;23.20;99.90;;;;;;5054394;28;20131;-81
2022/07/01 01:31:30;;;;;;;6.10;1.58;;;23.30;99.90;;;;;;5045796;28;20361;-81
2022/07/01 01:33:56;;;;;;;3.08;1.73;;;23.30;99.90;;;;;;5086445;28;20032;-81
2022/07/01 01:36:23;;;;;;;4.45;1.70;;;23.30;99.90;;;;;;5077017;28;20734;-77
2022/07/01 01:38:49;;;;;;;7.40;1.52;;;23.40;99.90;;;;;;5066964;28;20056;-80
2022/07/01 01:41:16;;;;;;;4.43;1.95;;;23.30;99.90;;;;;;5040018;28;20038;-77
2022/07/01 01:43:42;;;;;;;7.13;2.03;;;23.20;99.90;;;;;;5042785;28;20041;-78
2022/07/01 01:46:09;;;;;;;3.22;1.70;;;23.20;99.90;;;;;;5076135;28;20037;-83
2022/07/01 01:48:35;;;;;;;4.90;1.90;;;23.20;99.90;;;;;;5050989;28;20063;-77
2022/07/01 01:51:01;;;;;;;3.97;1.80;;;23.30;99.90;;;;;;5047826;28;20058;-79
2022/07/01 01:53:27;;;;;;;4.32;1.92;;;23.20;99.90;;;;;;5045657;28;20045;-83
2022/07/01 01:55:53;;;;;;;5.88;1.77;;;23.30;99.90;;;;;;5046198;28;20037;-77
2022/07/01 01:58:21;;;;;;;5.78;1.83;;;23.20;99.90;;;;;;5045142;28;20369;-77
2022/07/01 02:00:47;;;;;;;4.95;1.73;;;23.20;99.90;;;;;;5081020;28;20045;-78
2022/07/01 02:03:14;;;;;;;5.43;2.40;;;23.10;99.90;;;;;;5080921;28;20044;-78
2022/07/01 02:05:40;;;;;;;3.90;1.90;;;23.00;99.90;;;;;;5082480;28;20025;-79
2022/07/01 02:08:07;;;;;;;6.28;2.00;;;23.00;99.90;;;;;;5069217;28;20097;-76
2022/07/01 02:10:34;;;;;;;8.43;2.47;;;22.90;99.90;;;;;;5049157;28;20029;-81
2022/07/01 02:13:00;;;;;;;5.60;2.20;;;22.90;99.90;;;;;;5055898;28;20607;-79
2022/07/01 02:15:26;;;;;;;4.53;2.08;;;22.90;99.90;;;;;;5079870;28;20036;-76
2022/07/01 02:17:56;;;;;;;7.50;2.40;;;22.90;99.90;;;;;;5079347;28;20048;-78
2022/07/01 02:20:22;;;;;;;7.30;3.03;;;22.80;99.90;;;;;;5071450;28;20031;-77
2022/07/01 02:22:49;;;;;;;7.32;1.98;;;22.80;99.90;;;;;;5082834;28;20032;-77
2022/07/01 02:25:15;;;;;;;6.95;2.35;;;22.80;99.90;;;;;;5080614;28;20040;-81
2022/07/01 02:27:41;;;;;;;5.90;2.67;;;22.90;99.90;;;;;;5068555;28;20073;-77
2022/07/01 02:30:07;;;;;;;6.32;2.05;;;23.00;99.90;;;;;;5080946;28;20041;-76
2022/07/01 02:32:34;;;;;;;5.55;1.90;;;23.00;99.90;;;;;;5078919;28;20043;-81
2022/07/01 02:35:00;;;;;;;3.38;1.67;;;23.10;99.90;;;;;;5072552;28;20364;-76
2022/07/01 02:37:28;;;;;;;3.40;1.83;;;23.10;99.90;;;;;;5082466;28;20088;-82
2022/07/01 02:39:55;;;;;;;4.95;1.88;;;23.10;99.90;;;;;;5068728;28;20032;-78
2022/07/01 02:42:26;;;;;;;5.35;1.77;;;23.20;99.90;;;;;;5069996;28;20073;-82
2022/07/01 02:44:55;;;;;;;4.93;1.65;;;23.10;99.90;;;;;;5084976;28;20024;-78
2022/07/01 02:47:24;;;;;;;7.20;1.95;;;23.10;99.90;;;;;;5086140;28;20514;-77
2022/07/01 02:49:55;;;;;;;3.08;1.70;;;23.10;99.90;;;;;;5069642;28;20083;-76
2022/07/01 02:52:21;;;;;;;3.95;1.63;;;23.20;99.90;;;;;;5067074;28;20068;-82
2022/07/01 02:54:49;;;;;;;3.75;1.60;;;23.10;99.90;;;;;;5070478;28;20036;-79
2022/07/01 02:57:16;;;;;;;3.72;1.58;;;23.00;99.90;;;;;;5069562;28;20052;-82
2022/07/01 02:59:42;;;;;;;5.05;2.00;;;23.00;99.90;;;;;;5069770;28;20036;-79
2022/07/01 03:02:07;;;;;;;3.72;1.83;;;22.90;99.90;;;;;;5058180;28;20244;-79
2022/07/01 03:04:34;;;;;;;4.82;1.95;;;22.90;99.90;;;;;;5044609;28;20036;-81
2022/07/01 03:07:00;;;;;;;5.45;1.90;;;22.80;99.90;;;;;;5050800;28;20549;-77
2022/07/01 03:09:27;;;;;;;6.07;1.95;;;22.70;99.90;;;;;;5064054;28;20041;-80
2022/07/01 03:11:53;;;;;;;5.50;2.30;;;22.60;99.90;;;;;;5080125;28;20515;-77
2022/07/01 03:14:20;;;;;;;4.65;2.13;;;22.50;99.90;;;;;;5055159;28;20124;-77
2022/07/01 03:16:47;;;;;;;6.63;2.10;;;22.50;99.90;;;;;;5044202;28;20041;-79
2022/07/01 03:19:13;;;;;;;4.90;1.88;;;22.40;99.90;;;;;;5051835;28;20112;-78
2022/07/01 03:21:42;;;;;;;6.55;2.20;;;22.40;99.90;;;;;;5042024;28;20038;-82
2022/07/01 03:24:08;;;;;;;4.57;2.00;;;22.40;99.90;;;;;;5052889;28;20056;-77
2022/07/01 03:26:34;;;;;;;8.65;2.50;;;22.30;99.90;;;;;;5060960;28;20041;-81
2022/07/01 03:29:00;;;;;;;6.28;2.28;;;22.30;99.90;;;;;;5095180;28;20033;-76
2022/07/01 03:31:27;;;;;;;5.80;2.40;;;22.20;99.90;;;;;;5045774;28;20044;-80
2022/07/01 03:33:53;;;;;;;8.05;2.53;;;22.20;99.90;;;;;;5051280;28;20123;-76
2022/07/01 03:36:19;;;;;;;5.95;2.28;;;22.20;99.90;;;;;;5046591;28;20037;-76
2022/07/01 03:38:45;;;;;;;7.60;2.63;;;22.20;99.90;;;;;;5044976;28;20033;-78
2022/07/01 03:41:11;;;;;;;4.78;2.05;;;22.10;99.90;;;;;;5026357;28;20168;-78
2022/07/01 03:43:37;;;;;;;9.40;2.50;;;22.10;99.90;;;;;;5042819;28;20485;-77
2022/07/01 03:46:03;;;;;;;5.90;2.30;;;22.10;99.90;;;;;;5044383;28;20037;-78
2022/07/01 03:48:29;;;;;;;6.53;2.50;;;22.00;99.90;;;;;;5080050;28;20025;-80
2022/07/01 03:50:56;;;;;;;7.82;2.83;;;22.10;99.90;;;;;;5088621;28;20066;-76
2022/07/01 03:56:07;;;;;;;8.25;2.47;;;22.00;99.90;;;;;;5055977;28;20168;-77
2022/07/01 03:58:33;;;;;;;8.93;2.80;;;22.00;99.90;;;;;;5072407;28;20400;-81
2022/07/01 04:00:59;;;;;;;4.72;2.45;;;22.00;99.90;;;;;;5074589;28;20041;-78
2022/07/01 04:03:25;;;;;;;6.20;2.67;;;21.90;99.90;;;;;;5092785;28;20041;-76
2022/07/01 04:05:52;;;;;;;6.93;3.38;;;21.90;99.90;;;;;;5056912;28;20140;-78
2022/07/01 04:08:21;;;;;;;6.60;3.33;;;21.80;99.90;;;;;;5069224;28;20043;-79
2022/07/01 04:10:48;;;;;;;6.38;2.88;;;21.80;99.90;;;;;;5047337;28;20167;-82
2022/07/01 04:13:14;;;;;;;6.40;2.83;;;21.80;99.90;;;;;;5091070;28;20091;-76
2022/07/01 04:15:40;;;;;;;9.20;3.30;;;21.80;99.90;;;;;;5062121;28;20043;-80
2022/07/01 04:18:05;;;;;;;8.45;3.00;;;21.80;99.90;;;;;;5057251;28;20382;-81
2022/07/01 04:20:31;;;;;;;10.98;3.08;;;21.70;99.90;;;;;;5044081;28;20357;-77
2022/07/01 04:22:58;;;;;;;10.27;2.90;;;21.70;99.90;;;;;;5045035;28;20060;-78
2022/07/01 04:25:25;;;;;;;5.18;2.67;;;21.70;99.90;;;;;;5077371;28;20114;-81
2022/07/01 04:27:51;;;;;;;6.93;2.72;;;21.70;99.90;;;;;;5064355;28;20150;-78
2022/07/01 04:30:17;;;;;;;6.85;2.70;;;21.60;99.90;;;;;;5045897;28;20248;-79
2022/07/01 04:32:43;;;;;;;7.43;2.72;;;21.60;99.90;;;;;;5062102;28;20037;-78
2022/07/01 04:35:11;;;;;;;6.95;2.53;;;21.60;99.90;;;;;;5058600;28;20044;-78
2022/07/01 04:37:38;;;;;;;4.80;2.20;;;21.60;99.90;;;;;;5050969;28;20037;-80
2022/07/01 04:40:06;;;;;;;6.25;2.28;;;21.50;99.90;;;;;;5054983;28;20079;-78
2022/07/01 04:42:32;;;;;;;5.47;2.50;;;21.50;99.90;;;;;;5081478;28;20094;-80
2022/07/01 04:44:58;;;;;;;7.35;2.90;;;21.50;99.90;;;;;;5082651;28;20446;-78
2022/07/01 04:47:25;;;;;;;4.63;2.25;;;21.60;99.90;;;;;;5071115;28;20047;-77
2022/07/01 04:49:51;;;;;;;8.05;2.20;;;21.60;99.90;;;;;;5083036;28;20365;-78
2022/07/01 04:52:18;;;;;;;4.95;2.10;;;21.60;99.90;;;;;;5080054;28;20056;-76
2022/07/01 04:54:44;;;;;;;3.55;2.22;;;21.50;99.90;;;;;;5082038;28;20036;-78
2022/07/01 04:57:09;;;;;;;4.95;1.90;;;21.60;99.90;;;;;;5051990;28;20469;-77
2022/07/01 04:59:36;;;;;;;8.70;1.92;;;21.60;99.90;;;;;;5092741;28;20043;-77
2022/07/01 05:02:03;;;;;;;6.75;1.65;;;21.60;99.90;;;;;;5047784;28;20114;-82
2022/07/01 05:04:30;;;;;;;7.40;1.70;;;21.70;99.90;;;;;;5059590;28;20041;-79
2022/07/01 05:06:55;;;;;;;4.13;2.00;;;21.70;99.90;;;;;;5055124;28;20037;-81
2022/07/01 05:09:22;;;;;;;4.10;2.65;;;21.70;99.90;;;;;;5077070;28;20041;-79
2022/07/01 05:11:48;;;;;;;4.53;1.95;;;21.70;99.90;;;;;;5048614;28;20642;-78
2022/07/01 05:14:14;;;;;;;4.68;1.50;;;21.70;99.90;;;;;;5060209;28;20091;-81
2022/07/01 05:16:40;;;;;;;2.40;1.30;;;21.70;99.90;;;;;;5079023;28;20492;-77
2022/07/01 05:21:57;;;;;;;4.85;1.27;;;21.70;99.90;;;;;;5045871;28;20079;-77
2022/07/01 05:24:28;;;;;;;5.18;1.20;;;21.70;99.90;;;;;;5047438;28;20033;-78
2022/07/01 05:26:54;;;;;;;4.47;1.20;;;21.70;99.90;;;;;;5071426;28;20071;-78
2022/07/01 05:29:20;;;;;;;3.97;1.30;;;21.70;99.90;;;;;;5044451;28;20071;-77
2022/07/01 05:31:47;;;;;;;8.98;1.65;;;21.70;99.90;;;;;;5073043;28;20477;-79
2022/07/01 05:34:13;;;;;;;1.70;1.10;;;21.70;99.90;;;;;;5041531;28;20051;-77
2022/07/01 05:36:39;;;;;;;4.32;1.10;;;21.70;99.90;;;;;;5045188;28;20496;-78
2022/07/01 05:39:08;;;;;;;3.08;0.90;;;21.60;99.90;;;;;;5090514;28;20041;-82
2022/07/01 05:41:35;;;;;;;3.38;1.20;;;21.70;99.90;;;;;;5040369;28;20040;-79
2022/07/01 05:44:01;;;;;;;4.45;1.10;;;21.80;99.90;;;;;;5082085;28;20044;-77
2022/07/01 05:46:27;;;;;;;4.85;0.90;;;21.80;99.90;;;;;;5050879;28;20036;-78
2022/07/01 05:48:52;;;;;;;3.50;1.23;;;21.80;99.90;;;;;;5047405;28;20105;-78
2022/07/01 05:51:18;;;;;;;6.25;1.00;;;21.90;99.90;;;;;;5077101;28;20057;-77
2022/07/01 05:53:47;;;;;;;2.42;1.10;;;22.00;99.90;;;;;;5079678;28;20067;-78
2022/07/01 05:56:13;;;;;;;7.97;1.42;;;22.00;99.90;;;;;;5045035;28;20041;-78
2022/07/01 05:58:40;;;;;;;5.47;1.10;;;22.20;99.90;;;;;;5077722;28;20408;-77
2022/07/01 06:01:06;;;;;;;4.32;0.98;;;22.30;99.90;;;;;;5042777;28;20144;-76
2022/07/01 06:03:32;;;;;;;4.25;1.20;;;22.40;99.90;;;;;;5052824;28;20040;-77
2022/07/01 06:05:59;;;;;;;2.33;0.95;;;22.50;99.90;;;;;;5071431;28;20037;-80
2022/07/01 06:08:26;;;;;;;2.78;1.15;;;22.50;99.90;;;;;;5066655;28;20073;-77
2022/07/01 06:10:52;;;;;;;5.20;1.30;;;22.60;99.90;;;;;;5070045;28;20036;-80
2022/07/01 06:13:20;;;;;;;3.72;1.33;;;22.70;99.90;;;;;;5062419;28;20147;-78
2022/07/01 06:15:46;;;;;;;4.55;1.38;;;22.80;99.90;;;;;;5068096;28;20059;-77
2022/07/01 06:18:12;;;;;;;4.78;1.25;;;22.90;99.90;;;;;;5070888;28;20033;-78
2022/07/01 06:20:38;;;;;;;6.22;1.40;;;23.00;99.90;;;;;;5067812;28;20032;-80
2022/07/01 06:23:05;;;;;;;3.33;1.80;;;23.10;99.90;;;;;;5072282;28;20032;-78
2022/07/01 06:25:31;;;;;;;5.43;1.70;;;23.20;99.90;;;;;;5062958;28;20036;-80
2022/07/01 06:27:57;;;;;;;3.72;1.42;;;23.40;99.90;;;;;;5073127;28;20035;-78
2022/07/01 06:30:25;;;;;;;5.70;1.50;;;23.50;99.90;;;;;;5058820;28;20053;-77
2022/07/01 06:32:51;;;;;;;5.30;1.30;;;23.50;99.90;;;;;;5084781;28;20390;-77
2022/07/01 06:35:17;;;;;;;5.15;1.58;;;23.50;99.90;;;;;;5044000;28;20147;-77
2022/07/01 06:37:43;;;;;;;5.28;1.55;;;23.50;99.90;;;;;;5070923;28;20048;-81
2022/07/01 06:40:10;;;;;;;8.07;1.63;;;23.40;99.90;;;;;;5067333;28;20105;-78
2022/07/01 06:42:37;;;;;;;4.80;1.50;;;23.50;99.90;;;;;;5073518;28;20036;-80
2022/07/01 06:45:04;;;;;;;8.40;1.45;;;23.40;99.90;;;;;;5084758;28;20078;-77
2022/07/01 06:47:29;;;;;;;6.88;1.77;;;23.40;99.90;;;;;;5085725;28;20128;-78
2022/07/01 06:49:56;;;;;;;5.45;1.48;;;23.50;99.90;;;;;;5078177;28;20194;-81
2022/07/01 06:52:22;;;;;;;5.72;1.30;;;23.70;99.90;;;;;;5058309;28;20056;-79
2022/07/01 06:54:49;;;;;;;4.40;1.50;;;23.70;99.90;;;;;;5068121;28;20044;-78
2022/07/01 06:57:16;;;;;;;6.97;1.80;;;23.80;99.90;;;;;;5073154;28;20027;-82
2022/07/01 06:59:46;;;;;;;8.60;1.70;;;23.90;99.90;;;;;;5071955;28;20048;-80
2022/07/01 07:02:12;;;;;;;7.68;1.50;;;23.90;99.90;;;;;;5054339;28;20385;-77
2022/07/01 07:04:38;;;;;;;4.82;1.30;;;23.90;99.80;;;;;;5065124;28;20118;-78
2022/07/01 07:07:04;;;;;;;5.53;1.58;;;24.00;99.70;;;;;;5040524;28;20029;-76
2022/07/01 07:09:30;;;;;;;8.98;1.52;;;24.00;99.40;;;;;;5062241;28;20479;-76
2022/07/01 07:11:56;;;;;;;5.93;1.30;;;24.30;99.00;;;;;;5063572;28;20044;-80
2022/07/01 07:14:22;;;;;;;7.18;1.30;;;24.50;98.60;;;;;;5064690;28;20060;-83
2022/07/01 07:16:48;;;;;;;4.90;1.30;;;24.50;98.20;;;;;;5068269;28;20039;-80
2022/07/01 07:19:14;;;;;;;2.85;1.10;;;24.50;98.20;;;;;;5067903;28;20037;-80
2022/07/01 07:21:40;;;;;;;6.18;1.30;;;24.40;98.10;;;;;;5084671;28;20033;-79
2022/07/01 07:24:07;;;;;;;4.22;0.90;;;24.30;98.00;;;;;;5052313;28;20059;-79
2022/07/01 07:26:33;;;;;;;3.75;1.00;;;24.20;98.10;;;;;;5051236;28;20053;-82
2022/07/01 07:28:59;;;;;;;4.95;1.35;;;24.10;98.20;;;;;;5049695;28;20047;-78
2022/07/01 07:31:25;;;;;;;5.03;0.95;;;23.90;98.30;;;;;;5069136;28;20071;-77
2022/07/01 07:33:51;;;;;;;5.35;1.40;;;23.80;98.40;;;;;;5052665;28;20037;-83
2022/07/01 07:36:17;;;;;;;5.95;1.20;;;23.70;98.70;;;;;;5081546;28;20072;-82
2022/07/01 07:38:44;;;;;;;5.05;1.50;;;23.70;99.20;;;;;;5054150;28;20101;-79
2022/07/01 07:41:10;;;;;;;4.68;1.48;;;23.60;99.90;;;;;;5063876;28;20037;-80
2022/07/01 07:43:36;;;;;;;8.30;1.60;;;23.50;99.90;;;;;;5048653;28;20068;-79
2022/07/01 07:46:03;;;;;;;4.72;1.40;;;23.70;99.90;;;;;;5062833;28;20052;-83
2022/07/01 07:48:30;;;;;;;5.97;1.70;;;23.70;99.90;;;;;;5055691;28;20082;-77
2022/07/01 07:50:58;;;;;;;6.70;1.90;;;23.90;99.90;;;;;;5069449;28;20033;-79
2022/07/01 07:53:24;;;;;;;5.30;1.60;;;24.10;99.90;;;;;;5070445;28;20094;-80
2022/07/01 07:55:51;;;;;;;6.32;1.52;;;24.10;99.90;;;;;;5085324;28;20036;-78
2022/07/01 07:58:17;;;;;;;5.93;1.42;;;24.20;99.90;;;;;;5075673;28;20070;-78
2022/07/01 08:00:44;;;;;;;6.05;1.80;;;24.20;99.90;;;;;;5084140;28;20036;-82
2022/07/01 08:03:10;;;;;;;7.40;1.52;;;24.50;99.90;;;;;;5068440;28;20496;-78
2022/07/01 08:05:36;;;;;;;4.80;1.55;;;24.60;99.90;;;;;;5070703;28;20039;-82
2022/07/01 08:08:03;;;;;;;3.65;1.23;;;24.80;99.90;;;;;;5070796;28;20017;-78
2022/07/01 08:10:29;;;;;;;4.70;1.20;;;24.70;99.90;;;;;;5065425;28;20032;-83
2022/07/01 08:12:56;;;;;;;9.52;1.65;;;24.80;99.90;;;;;;5067865;28;20041;-79
2022/07/01 08:15:24;;;;;;;4.05;1.10;;;24.90;99.90;;;;;;5085972;28;20104;-82
2022/07/01 08:17:50;;;;;;;9.25;1.40;;;24.90;99.90;;;;;;5085512;28;20386;-82
2022/07/01 08:20:18;;;;;;;4.40;1.55;;;24.90;99.90;;;;;;5073093;28;20067;-81
2022/07/01 08:22:45;;;;;;;4.15;1.42;;;24.70;99.90;;;;;;5087697;28;20463;-84
2022/07/01 08:25:12;;;;;;;5.28;1.23;;;24.70;99.90;;;;;;5082553;28;20044;-78
2022/07/01 08:27:39;;;;;;;4.50;1.33;;;25.00;99.90;;;;;;5068665;28;20075;-79
2022/07/01 08:30:07;;;;;;;5.93;1.55;;;25.30;99.90;;;;;;5069371;28;20039;-81
2022/07/01 08:32:34;;;;;;;6.07;1.92;;;25.60;99.90;;;;;;5062621;28;20048;-79
2022/07/01 08:35:00;;;;;;;4.47;1.20;;;25.80;99.90;;;;;;5050739;28;20041;-80
2022/07/01 08:37:27;;;;;;;2.05;1.10;;;25.60;99.90;;;;;;5063596;28;20044;-79
2022/07/01 08:39:53;;;;;;;3.85;1.40;;;25.40;99.90;;;;;;5068015;28;20399;-81
2022/07/01 08:42:19;;;;;;;6.57;1.63;;;25.70;99.90;;;;;;5070460;28;20044;-83
2022/07/01 08:44:45;;;;;;;7.05;1.60;;;25.70;99.90;;;;;;5085726;28;20092;-78
2022/07/01 08:47:13;;;;;;;4.53;1.60;;;25.20;99.90;;;;;;5072278;28;20365;-80
2022/07/01 08:49:40;;;;;;;5.53;1.80;;;24.80;99.90;;;;;;5044585;28;20040;-81
2022/07/01 08:52:09;;;;;;;7.68;1.83;;;24.80;99.90;;;;;;5082169;28;20061;-78
2022/07/01 08:54:37;;;;;;;10.18;2.05;;;24.50;99.90;;;;;;5061342;28;20040;-79
2022/07/01 08:57:04;;;;;;;3.60;1.75;;;24.50;99.90;;;;;;5067740;28;20062;-80
2022/07/01 08:59:33;;;;;;;5.35;1.90;;;24.70;99.90;;;;;;5065737;28;20151;-80
2022/07/01 09:02:03;;;;;;;6.43;1.77;;;24.50;99.90;;;;;;5082203;28;20431;-80
2022/07/01 09:04:30;;;;;;;7.53;1.90;;;24.60;99.90;;;;;;5079243;28;20120;-80
2022/07/01 09:07:09;;;;;;;4.03;2.47;;;24.30;99.90;;;;;;5084500;28;20084;-80
2022/07/01 09:09:36;;;;;;;7.53;2.15;;;24.00;99.90;;;;;;5082248;28;20036;-81
2022/07/01 09:12:03;;;;;;;9.63;2.50;;;24.40;99.90;;;;;;5067003;28;20037;-78
2022/07/01 09:14:31;;;;;;;4.40;1.92;;;24.90;99.90;;;;;;5070352;28;20044;-79
2022/07/01 09:17:02;;;;;;;6.72;2.05;;;25.00;99.90;;;;;;5066516;28;20040;-81
2022/07/01 09:19:39;;;;;;;7.72;1.58;;;25.00;99.90;;;;;;5047675;28;20037;-79
2022/07/01 09:22:09;;;;;;;4.65;1.70;;;25.20;99.90;;;;;;5046118;28;20037;-78
2022/07/01 09:24:46;;;;;;;6.82;1.50;;;25.00;99.90;;;;;;5047827;28;20106;-78
2022/07/01 09:27:17;;;;;;;6.18;1.88;;;25.00;99.90;;;;;;5047296;28;20042;-79
2022/07/01 09:29:56;;;;;;;9.45;1.90;;;25.00;99.90;;;;;;5081069;28;20127;-80
2022/07/01 09:32:26;;;;;;;10.68;2.13;;;25.20;99.90;;;;;;5092657;28;20041;-78
2022/07/01 09:34:56;;;;;;;7.18;1.92;;;25.10;99.90;;;;;;5068722;28;20032;-79
2022/07/01 09:37:36;;;;;;;5.05;1.85;;;25.50;99.90;;;;;;5069743;28;20171;-80
2022/07/01 09:40:06;;;;;;;7.32;1.50;;;25.50;99.90;;;;;;5070403;28;20032;-78
2022/07/01 09:42:46;;;;;;;6.18;1.75;;;25.50;99.90;;;;;;5068495;28;20040;-77
2022/07/01 09:45:18;;;;;;;7.75;1.50;;;25.50;99.90;;;;;;5069745;28;20045;-79
2022/07/01 09:47:50;;;;;;;6.90;1.67;;;25.80;99.90;;;;;;5085456;28;20037;-82
2022/07/01 09:50:20;;;;;;;;;;;25.90;99.90;;;;;;5083819;28;20033;-76
2022/07/01 09:52:50;;;;;;;7.63;1.60;;;26.00;99.90;;;;;;5072344;28;20080;-79
2022/07/01 09:55:20;;;;;;;6.70;1.40;;;26.30;99.90;;;;;;5069054;28;20127;-82
2022/07/01 09:57:50;;;;;;;3.92;1.40;;;26.40;99.90;;;;;;5090138;28;20373;-78
2022/07/01 10:00:20;;;;;;;4.10;1.20;;;26.20;99.90;;;;;;5086219;28;20515;-77
2022/07/01 10:03:00;;;;;;;3.00;1.25;;;26.10;99.90;;;;;;5090881;28;20110;-79
2022/07/01 10:05:28;;;;;;;7.13;1.38;;;26.30;99.90;;;;;;5083668;28;20033;-77
2022/07/01 10:08:15;;;;;;;2.53;1.17;;;26.10;99.90;;;;;;5071481;28;20028;-78
2022/07/01 10:11:14;;;;;;;3.08;1.20;;;26.20;99.90;;;;;;5071391;28;20028;-80
2022/07/01 10:13:41;;;;;;;3.10;1.30;;;25.20;99.90;;;;;;5067449;28;20033;-80
2022/07/01 10:16:09;;;;;;;4.30;1.50;;;25.20;99.90;;;;;;5070120;28;20120;-78
2022/07/01 10:18:35;;;;;;;5.57;1.52;;;25.10;99.90;;;;;;5070337;28;20063;-78
2022/07/01 10:21:03;;;;;;;7.47;1.80;;;25.30;99.90;;;;;;5085145;28;20054;-77
2022/07/01 10:23:38;;;;;;;3.85;1.48;;;25.30;99.90;;;;;;5057379;28;20107;-78
2022/07/01 10:26:07;;;;;;;4.65;1.40;;;25.60;99.90;;;;;;5058314;28;20088;-82
2022/07/01 10:28:48;;;;;;;6.30;1.60;;;26.00;99.90;;;;;;5049812;28;20029;-81
2022/07/01 10:31:38;;;;;;;3.47;1.58;;;25.60;99.90;;;;;;5054007;28;20040;-78
2022/07/01 10:34:05;;;;;;;4.53;1.40;;;25.60;99.90;;;;;;5047790;28;20028;-77
2022/07/01 10:36:32;;;;;;;7.65;1.65;;;26.00;99.90;;;;;;5046293;28;20112;-81
2022/07/01 10:41:57;;;;;;;4.72;1.50;;;26.50;99.90;;;;;;5048221;28;20051;-80
2022/07/01 10:44:24;;;;;;;3.42;1.30;;;27.00;99.90;;;;;;5052616;28;20041;-78
2022/07/01 10:47:05;;;;;;;3.60;1.40;;;26.90;99.90;;;;;;5047278;28;20034;-79
2022/07/01 10:49:38;;;;;;;4.35;1.40;;;26.80;99.90;;;;;;5066030;28;20576;-83
2022/07/01 10:52:08;;;;;;;9.40;1.60;;;27.10;99.90;;;;;;5063469;28;20477;-85
2022/07/01 10:54:39;;;;;;;3.42;1.27;;;26.80;99.90;;;;;;5068287;28;20041;-81
2022/07/01 10:57:29;;;;;;;6.50;1.33;;;26.70;99.90;;;;;;5064903;28;20025;-78
2022/07/01 10:59:58;;;;;;;6.35;1.25;;;26.70;99.90;;;;;;5054929;28;20037;-77
2022/07/01 11:02:28;;;;;;;4.35;1.30;;;27.00;99.90;;;;;;5079525;28;20029;-78
2022/07/01 11:04:58;;;;;;;5.20;1.10;;;26.60;99.90;;;;;;5060501;28;20029;-77
2022/07/01 11:07:26;;;;;;;4.90;1.95;;;26.60;99.90;;;;;;5049429;28;20060;-80
2022/07/01 11:09:55;;;;;;;5.30;1.25;;;26.30;99.90;;;;;;5050532;28;20040;-78
2022/07/01 11:12:25;;;;;;;7.20;1.85;;;26.50;99.90;;;;;;5046897;28;20121;-76
2022/07/01 11:14:54;;;;;;;5.00;1.40;;;26.70;99.90;;;;;;5051941;28;20176;-81
2022/07/01 11:17:21;;;;;;;5.15;1.50;;;27.10;99.90;;;;;;5049729;28;20091;-84
2022/07/01 11:19:52;;;;;;;6.85;1.67;;;26.40;99.90;;;;;;5073441;28;20043;-78
2022/07/01 11:22:23;;;;;;;7.60;1.60;;;26.40;99.90;;;;;;5061856;28;20041;-83
2022/07/01 11:25:13;;;;;;;5.32;1.50;;;26.90;99.90;;;;;;5048896;28;20041;-79
2022/07/01 11:27:40;;;;;;;5.35;1.45;;;27.00;99.90;;;;;;5061258;28;20033;-78
2022/07/01 11:30:13;;;;;;;3.85;1.45;;;27.10;99.90;;;;;;5055950;28;20028;-81
2022/07/01 11:32:43;;;;;;;7.10;1.35;;;26.50;99.90;;;;;;5056811;28;20519;-78
2022/07/01 11:41:04;;;;;;;7.75;1.98;;;26.60;99.90;;;;;;5081189;28;20515;-78
2022/07/01 11:43:34;;;;;;;6.90;1.40;;;26.60;99.90;;;;;;5065008;28;20033;-77
2022/07/01 11:46:02;;;;;;;4.80;1.50;;;27.30;99.90;;;;;;5052603;28;20041;-77
2022/07/01 11:48:39;;;;;;;7.28;1.85;;;27.30;99.90;;;;;;5049391;28;20036;-77
2022/07/01 11:51:16;;;;;;;9.35;1.70;;;26.50;99.90;;;;;;5069704;28;20029;-78
2022/07/01 11:53:44;;;;;;;5.70;1.67;;;27.10;99.90;;;;;;5046006;28;20479;-82
2022/07/01 11:56:11;;;;;;;4.57;1.58;;;26.80;99.90;;;;;;5033894;28;20037;-81
2022/07/01 11:58:53;;;;;;;5.78;1.27;;;27.10;99.90;;;;;;5052439;28;20033;-77
2022/07/01 12:01:28;;;;;;;8.18;1.90;;;26.70;99.90;;;;;;5047183;28;20045;-78
2022/07/01 12:03:57;;;;;;;6.05;1.70;;;26.70;99.90;;;;;;5042898;28;20038;-79
2022/07/01 12:06:23;;;;;;;10.50;2.13;;;26.80;99.90;;;;;;5044923;28;20109;-80
2022/07/01 12:08:50;;;;;;;10.82;1.80;;;26.90;99.90;;;;;;5041334;28;20042;-82
2022/07/01 12:11:17;;;;;;;8.95;1.83;;;27.10;99.90;;;;;;5077491;28;20064;-77
2022/07/01 12:13:46;;;;;;;5.18;1.92;;;26.60;99.90;;;;;;5043460;28;20049;-79
2022/07/01 12:16:12;;;;;;;9.10;2.00;;;27.00;99.90;;;;;;5055434;28;20504;-80
2022/07/01 12:18:38;;;;;;;8.48;2.15;;;27.20;99.90;;;;;;5033191;28;20037;-77
2022/07/01 12:21:05;;;;;;;7.03;1.88;;;27.40;99.90;;;;;;5043697;28;20879;-79
2022/07/01 12:23:32;;;;;;;5.75;1.80;;;27.90;99.90;;;;;;5039672;28;20037;-79
2022/07/01 12:25:58;;;;;;;6.20;1.80;;;28.00;99.90;;;;;;5035390;28;20030;-78
2022/07/01 12:28:53;;;;;;;5.38;1.50;;;27.30;99.90;;;;;;5042028;28;20473;-78
2022/07/01 12:31:19;;;;;;;5.38;1.50;;;27.60;99.90;;;;;;5047352;28;20025;-80
2022/07/01 12:33:50;;;;;;;7.10;2.00;;;28.40;99.90;;;;;;5046914;28;20564;-77
2022/07/01 12:36:16;;;;;;;4.05;1.63;;;27.50;99.90;;;;;;5047861;28;20114;-81
2022/07/01 12:38:43;;;;;;;6.55;2.17;;;26.90;99.90;;;;;;5044330;28;20087;-79
2022/07/01 12:41:34;;;;;;;6.03;1.67;;;27.70;99.90;;;;;;5047107;28;20055;-77
2022/07/01 12:44:23;;;;;;;6.72;1.58;;;27.20;99.90;;;;;;5062781;28;20035;-77
2022/07/01 12:46:49;;;;;;;7.60;2.03;;;27.20;99.90;;;;;;5063953;28;20048;-78
2022/07/01 12:49:25;;;;;;;5.10;1.52;;;27.40;99.90;;;;;;5054848;28;20017;-77
2022/07/01 12:51:52;;;;;;;5.72;1.75;;;28.00;99.90;;;;;;5062769;28;20197;-78
2022/07/01 12:54:34;;;;;;;5.65;1.77;;;27.80;99.90;;;;;;5064858;28;20032;-80
2022/07/01 12:57:01;;;;;;;9.07;1.70;;;26.10;99.90;;;;;;5079402;28;20044;-75
2022/07/01 12:59:27;;;;;;;7.32;2.08;;;25.60;99.90;;;;;;5055473;28;20056;-78
2022/07/01 13:01:54;;;;;;;10.63;1.95;;;26.80;99.90;;;;;;5047532;28;20055;-78
2022/07/01 13:04:28;;;;;;;10.25;2.00;;;26.80;99.90;;;;;;5054930;28;20041;-81
2022/07/01 13:06:54;;;;;;;6.40;2.10;;;26.50;99.90;;;;;;5046018;28;20036;-79